Time;durP1;ratioP1;P1;durP2;ratioP2;P2;SDS_P1;SDS_P2;PMS_P1;PMS_P2;Temp;Humidity;BMP_temperature;BMP_pressure;BME280_temperature;BME280_humidity;BME280_pressure;Samples;Min_cycle;Max_cycle;Signal;HPM_P1;HPM_P2
2022/12/05 00:01:12;;;;;;;;;;;;;;;9.26;57.29;100173.56;4469522;32;33937;-68
2022/12/05 00:03:39;;;;;;;;;;;;;;;9.41;56.74;100177.09;4473282;32;34707;-69
2022/12/05 00:06:07;;;;;;;;;;;;;;;9.14;56.99;100169.81;4469260;32;34178;-69
2022/12/05 00:08:34;;;;;;;;;;;;;;;9.33;56.83;100161.53;4473197;31;33522;-69
2022/12/05 00:11:01;;;;;;;;;;;;;;;9.56;55.86;100158.22;4468882;32;34371;-70
2022/12/05 00:13:29;;;;;;;;;;;;;;;9.15;57.23;100155.53;4471489;32;32090;-69
2022/12/05 00:15:56;;;;;;;;;;;;;;;9.04;57.33;100164.19;4474521;32;34065;-71
2022/12/05 00:18:23;;;;;;;;;;;;;;;9.47;56.45;100166.88;4476401;32;34504;-68
2022/12/05 00:20:50;;;;;;;;;;;;;;;8.31;59.27;100155.25;4480193;32;34178;-68
2022/12/05 00:23:18;;;;;;;;;;;;;;;8.34;59.66;100155.06;4472543;31;34608;-68
2022/12/05 00:25:45;;;;;;;;;;;;;;;9.19;57.17;100159.72;4469505;32;34125;-70
2022/12/05 00:28:12;;;;;;;;;;;;;;;8.07;60.53;100155.75;4473644;32;34239;-68
2022/12/05 00:30:40;;;;;;;;;;;;;;;8.65;58.98;100163.97;4475768;32;34274;-68
2022/12/05 00:33:07;;;;;;;;;;;;;;;8.86;58.34;100160.00;4479134;32;34183;-68
2022/12/05 00:35:35;;;;;;;;;;;;;;;8.58;59.36;100156.31;4471606;32;32492;-68
2022/12/05 00:38:02;;;;;;;;;;;;;;;8.85;58.77;100153.78;4477835;32;34404;-68
2022/12/05 00:40:29;;;;;;;;;;;;;;;9.15;57.65;100160.00;4467862;32;34062;-67
2022/12/05 00:42:57;;;;;;;;;;;;;;;9.09;58.20;100155.91;4466649;32;34282;-67
2022/12/05 00:45:24;;;;;;;;;;;;;;;9.11;57.79;100170.00;4480610;32;34032;-68
2022/12/05 00:47:51;;;;;;;;;;;;;;;7.76;61.25;100172.63;4480723;32;35481;-66
2022/12/05 00:50:19;;;;;;;;;;;;;;;8.83;58.36;100174.38;4483901;32;34893;-68
2022/12/05 00:52:46;;;;;;;;;;;;;;;7.67;62.01;100173.13;4467920;32;31741;-67
2022/12/05 00:55:13;;;;;;;;;;;;;;;8.78;58.98;100163.13;4468728;32;33934;-67
2022/12/05 00:57:41;;;;;;;;;;;;;;;9.05;58.17;100165.03;4466551;32;35209;-67
2022/12/05 01:00:08;;;;;;;;;;;;;;;9.08;57.53;100160.41;4474245;32;33938;-67
2022/12/05 01:02:36;;;;;;;;;;;;;;;8.94;58.00;100163.03;4472398;32;32418;-67
2022/12/05 01:05:03;;;;;;;;;;;;;;;9.20;57.69;100163.25;4469844;32;34043;-66
2022/12/05 01:07:30;;;;;;;;;;;;;;;8.52;58.89;100153.16;4468252;32;34247;-66
2022/12/05 01:09:58;;;;;;;;;;;;;;;8.24;61.05;100156.56;4473314;32;34393;-66
2022/12/05 01:12:27;;;;;;;;;;;;;;;8.92;58.57;100148.91;4474198;32;33367;-67
2022/12/05 01:14:54;;;;;;;;;;;;;;;8.17;60.19;100146.25;4476661;32;34156;-67
2022/12/05 01:17:21;;;;;;;;;;;;;;;8.48;59.79;100147.16;4473509;31;34204;-66
2022/12/05 01:19:49;;;;;;;;;;;;;;;8.33;60.13;100140.03;4468976;32;32984;-66
2022/12/05 01:22:16;;;;;;;;;;;;;;;8.32;60.08;100136.50;4479028;32;31751;-66
2022/12/05 01:24:44;;;;;;;;;;;;;;;8.33;60.36;100132.88;4477948;32;34052;-66
2022/12/05 01:27:11;;;;;;;;;;;;;;;8.72;59.02;100133.28;4469473;32;34246;-66
2022/12/05 01:29:38;;;;;;;;;;;;;;;8.43;59.97;100135.87;4468700;32;33749;-68
2022/12/05 01:32:06;;;;;;;;;;;;;;;8.70;59.32;100144.06;4467885;32;34679;-66
2022/12/05 01:34:33;;;;;;;;;;;;;;;8.83;58.94;100144.19;4477277;32;34243;-66
2022/12/05 01:37:01;;;;;;;;;;;;;;;7.68;61.92;100154.41;4479299;32;34466;-68
2022/12/05 01:39:28;;;;;;;;;;;;;;;7.40;63.35;100149.75;4475253;32;34371;-66
2022/12/05 01:41:56;;;;;;;;;;;;;;;8.53;60.34;100150.38;4473156;32;34612;-66
2022/12/05 01:44:23;;;;;;;;;;;;;;;7.83;61.84;100152.69;4470624;32;33989;-66
2022/12/05 01:46:51;;;;;;;;;;;;;;;7.39;63.99;100156.03;4470758;32;34499;-65
2022/12/05 01:49:20;;;;;;;;;;;;;;;7.79;62.16;100151.12;4469626;32;34213;-65
2022/12/05 01:51:57;;;;;;;;;;;;;;;8.60;60.57;100148.22;4476849;32;33705;-66
2022/12/05 01:54:24;;;;;;;;;;;;;;;8.48;60.84;100144.50;4472529;32;34332;-66
2022/12/05 01:56:56;;;;;;;;;;;;;;;7.74;63.02;100149.66;4464730;32;34144;-65
2022/12/05 01:59:24;;;;;;;;;;;;;;;8.65;59.92;100137.28;4468858;32;35585;-67
2022/12/05 02:01:51;;;;;;;;;;;;;;;7.81;61.97;100137.72;4463384;32;34701;-65
2022/12/05 02:04:19;;;;;;;;;;;;;;;8.36;60.97;100139.84;4472491;32;34109;-69
2022/12/05 02:06:46;;;;;;;;;;;;;;;8.70;59.95;100138.72;4477641;32;34019;-68
2022/12/05 02:09:13;;;;;;;;;;;;;;;8.80;59.69;100142.53;4474099;32;35448;-68
2022/12/05 02:11:44;;;;;;;;;;;;;;;8.34;61.34;100145.25;4478812;32;33652;-68
2022/12/05 02:14:17;;;;;;;;;;;;;;;8.02;62.41;100140.94;4458198;32;34040;-67
2022/12/05 02:17:03;;;;;;;;;;;;;;;8.50;61.01;100144.38;4472986;32;34282;-66
2022/12/05 02:19:33;;;;;;;;;;;;;;;8.95;59.22;100140.72;4481709;32;34434;-66
2022/12/05 02:22:16;;;;;;;;;;;;;;;8.30;60.65;100140.22;4474859;32;33406;-69
2022/12/05 02:24:43;;;;;;;;;;;;;;;7.03;65.93;100153.56;4470046;32;35708;-73
2022/12/05 02:27:13;;;;;;;;;;;;;;;7.75;63.85;100154.91;4469595;32;34379;-67
2022/12/05 02:30:01;;;;;;;;;;;;;;;7.42;64.42;100157.69;4469426;31;35438;-67
2022/12/05 02:32:36;;;;;;;;;;;;;;;7.08;65.94;100162.16;4464045;32;34698;-67
2022/12/05 02:35:15;;;;;;;;;;;;;;;8.55;60.89;100150.31;4469540;32;32705;-67
2022/12/05 02:37:50;;;;;;;;;;;;;;;7.75;63.95;100149.59;4456638;32;33456;-70
2022/12/05 02:40:30;;;;;;;;;;;;;;;7.87;62.97;100156.91;4459281;32;34853;-70
2022/12/05 02:43:04;;;;;;;;;;;;;;;8.35;61.31;100162.16;4467113;32;33871;-70
2022/12/05 02:45:31;;;;;;;;;;;;;;;7.72;63.95;100160.41;4459750;32;35052;-68
2022/12/05 02:47:59;;;;;;;;;;;;;;;8.38;61.75;100164.66;4455959;32;35107;-66
2022/12/05 02:50:28;;;;;;;;;;;;;;;7.81;63.99;100153.72;4476826;32;34378;-67
2022/12/05 02:52:55;;;;;;;;;;;;;;;8.67;60.96;100157.59;4464424;32;34398;-66
2022/12/05 02:55:23;;;;;;;;;;;;;;;8.83;60.71;100161.03;4464916;32;35290;-67
2022/12/05 02:57:52;;;;;;;;;;;;;;;8.40;61.97;100168.94;4466508;32;34844;-68
2022/12/05 03:00:19;;;;;;;;;;;;;;;7.78;64.20;100170.72;4468916;32;35196;-65
2022/12/05 03:02:47;;;;;;;;;;;;;;;8.34;62.27;100168.41;4468121;32;33897;-65
2022/12/05 03:05:21;;;;;;;;;;;;;;;8.40;62.36;100162.75;4458322;32;35280;-66
2022/12/05 03:07:49;;;;;;;;;;;;;;;7.26;64.99;100168.31;4468253;32;35821;-65
2022/12/05 03:10:17;;;;;;;;;;;;;;;7.12;66.06;100166.37;4477726;31;34120;-66
2022/12/05 03:12:47;;;;;;;;;;;;;;;7.74;64.61;100162.97;4476909;32;34709;-66
2022/12/05 03:15:16;;;;;;;;;;;;;;;7.01;67.37;100168.75;4472640;32;34238;-66
2022/12/05 03:17:45;;;;;;;;;;;;;;;7.23;66.76;100171.12;4479384;32;34173;-66
2022/12/05 03:20:15;;;;;;;;;;;;;;;8.30;62.93;100161.53;4478357;32;33512;-66
2022/12/05 03:22:43;;;;;;;;;;;;;;;7.99;64.18;100163.31;4457206;32;33490;-66
2022/12/05 03:25:11;;;;;;;;;;;;;;;7.43;66.03;100165.56;4469970;32;33925;-66
2022/12/05 03:27:57;;;;;;;;;;;;;;;8.13;64.06;100166.06;4479999;32;34339;-69
2022/12/05 03:30:24;;;;;;;;;;;;;;;8.41;62.80;100164.50;4472075;31;33722;-65
2022/12/05 03:33:07;;;;;;;;;;;;;;;7.95;64.53;100156.44;4462153;32;34599;-68
2022/12/05 03:35:44;;;;;;;;;;;;;;;8.26;63.49;100155.53;4474691;32;34258;-67
2022/12/05 03:38:31;;;;;;;;;;;;;;;8.57;62.56;100148.41;4454030;32;34312;-65
2022/12/05 03:41:05;;;;;;;;;;;;;;;8.55;62.82;100150.31;4455694;32;34030;-68
2022/12/05 03:43:35;;;;;;;;;;;;;;;8.46;62.52;100150.84;4475230;32;34377;-66
2022/12/05 03:46:02;;;;;;;;;;;;;;;8.97;61.08;100145.97;4470361;32;33616;-66
2022/12/05 03:48:36;;;;;;;;;;;;;;;8.89;61.04;100148.25;4466744;32;32997;-65
2022/12/05 03:51:04;;;;;;;;;;;;;;;8.73;61.41;100148.31;4463809;32;34161;-65
2022/12/05 03:53:32;;;;;;;;;;;;;;;8.45;62.76;100152.69;4460746;32;34085;-66
2022/12/05 03:56:05;;;;;;;;;;;;;;;8.57;62.61;100159.94;4454294;32;33876;-67
2022/12/05 03:58:38;;;;;;;;;;;;;;;8.94;61.37;100159.53;4446339;32;33924;-67
2022/12/05 04:01:06;;;;;;;;;;;;;;;8.83;61.49;100166.37;4454860;32;34088;-65
2022/12/05 04:03:38;;;;;;;;;;;;;;;8.10;63.66;100165.38;4461545;32;33670;-66
2022/12/05 04:06:09;;;;;;;;;;;;;;;8.56;62.90;100160.88;4461408;32;35166;-66
2022/12/05 04:08:44;;;;;;;;;;;;;;;8.73;62.37;100156.34;4462681;32;34114;-67
2022/12/05 04:11:13;;;;;;;;;;;;;;;8.73;61.82;100164.34;4456713;32;33149;-66
2022/12/05 04:13:42;;;;;;;;;;;;;;;8.57;62.82;100159.94;4459117;32;34713;-67
2022/12/05 04:19:08;;;;;;;;;;;;;;;8.29;63.80;100166.03;4457089;32;36107;-65
2022/12/05 04:21:37;;;;;;;;;;;;;;;7.78;65.78;100146.75;4466566;32;34807;-66
2022/12/05 04:27:20;;;;;;;;;;;;;;;8.69;62.00;100147.66;4460637;32;32904;-66
2022/12/05 04:29:56;;;;;;;;;;;;;;;8.54;62.59;100143.25;4466737;32;34312;-66
2022/12/05 04:32:25;;;;;;;;;;;;;;;8.29;63.63;100141.16;4452481;32;33832;-66
2022/12/05 04:34:54;;;;;;;;;;;;;;;7.98;64.71;100124.28;4463714;32;33548;-65
2022/12/05 04:37:22;;;;;;;;;;;;;;;8.46;62.99;100125.03;4475654;32;34213;-66
2022/12/05 04:39:51;;;;;;;;;;;;;;;8.12;64.25;100132.34;4459258;32;34394;-64
2022/12/05 04:42:19;;;;;;;;;;;;;;;7.77;65.39;100133.50;4470410;32;33049;-66
2022/12/05 04:44:54;;;;;;;;;;;;;;;7.32;67.30;100138.69;4459166;32;34140;-66
2022/12/05 04:47:23;;;;;;;;;;;;;;;7.55;66.97;100141.87;4475887;32;33804;-65
2022/12/05 04:49:51;;;;;;;;;;;;;;;7.84;65.41;100132.22;4465272;32;32970;-66
2022/12/05 04:52:20;;;;;;;;;;;;;;;7.28;67.69;100138.91;4471303;32;34049;-66
2022/12/05 04:54:55;;;;;;;;;;;;;;;7.59;66.80;100136.28;4470242;32;33668;-68
2022/12/05 04:57:30;;;;;;;;;;;;;;;7.36;67.51;100126.91;4456125;32;33547;-66
2022/12/05 04:59:58;;;;;;;;;;;;;;;7.37;67.33;100125.09;4453737;32;35469;-66
2022/12/05 05:02:32;;;;;;;;;;;;;;;7.32;67.59;100133.34;4469373;32;34825;-66
2022/12/05 05:05:00;;;;;;;;;;;;;;;6.72;69.57;100143.69;4453141;32;32952;-66
2022/12/05 05:07:27;;;;;;;;;;;;;;;6.41;71.90;100149.72;4469820;32;32884;-66
2022/12/05 05:09:55;;;;;;;;;;;;;;;7.51;68.16;100151.81;4464129;32;35179;-68
2022/12/05 05:12:22;;;;;;;;;;;;;;;6.68;70.43;100158.09;4455083;32;33923;-70
2022/12/05 05:14:50;;;;;;;;;;;;;;;5.95;72.91;100168.84;4470234;32;32281;-66
2022/12/05 05:17:17;;;;;;;;;;;;;;;6.31;72.29;100167.94;4463624;32;34338;-66
2022/12/05 05:19:44;;;;;;;;;;;;;;;7.42;68.41;100160.34;4465336;32;33201;-67
2022/12/05 05:22:12;;;;;;;;;;;;;;;7.22;68.98;100172.94;4471797;32;33895;-66
2022/12/05 05:24:39;;;;;;;;;;;;;;;7.73;66.30;100161.28;4478858;32;34430;-65
2022/12/05 05:27:06;;;;;;;;;;;;;;;7.86;66.07;100159.63;4471679;32;32985;-69
2022/12/05 05:29:34;;;;;;;;;;;;;;;6.36;71.37;100165.06;4467402;31;35466;-65
2022/12/05 05:32:01;;;;;;;;;;;;;;;7.62;67.16;100161.88;4471497;32;33087;-67
2022/12/05 05:34:28;;;;;;;;;;;;;;;7.60;67.02;100164.62;4467548;32;33214;-65
2022/12/05 05:36:56;;;;;;;;;;;;;;;7.29;67.95;100169.91;4463753;32;33805;-65
2022/12/05 05:39:25;;;;;;;;;;;;;;;7.22;68.29;100170.28;4468092;32;34238;-66
2022/12/05 05:41:53;;;;;;;;;;;;;;;7.55;67.87;100160.53;4466752;32;34439;-66
2022/12/05 05:44:20;;;;;;;;;;;;;;;7.97;66.08;100151.03;4463346;32;33280;-68
2022/12/05 05:46:47;;;;;;;;;;;;;;;7.69;66.74;100157.94;4465381;32;35339;-69
2022/12/05 05:49:15;;;;;;;;;;;;;;;7.71;66.41;100166.72;4465135;32;32759;-70
2022/12/05 05:51:42;;;;;;;;;;;;;;;7.49;67.82;100166.19;4468455;32;33128;-69
2022/12/05 05:54:09;;;;;;;;;;;;;;;7.97;66.03;100170.56;4461098;32;32210;-68
2022/12/05 05:56:37;;;;;;;;;;;;;;;7.95;65.62;100167.09;4465905;32;33619;-67
2022/12/05 05:59:04;;;;;;;;;;;;;;;7.67;66.47;100167.81;4460574;32;34318;-66
2022/12/05 06:01:31;;;;;;;;;;;;;;;6.83;70.03;100180.38;4464669;32;32982;-67
2022/12/05 06:03:59;;;;;;;;;;;;;;;8.13;65.96;100176.72;4473548;32;33276;-68
2022/12/05 06:06:26;;;;;;;;;;;;;;;8.33;64.76;100180.03;4469139;32;34229;-68
2022/12/05 06:08:54;;;;;;;;;;;;;;;6.78;69.51;100183.28;4470863;32;33000;-69
2022/12/05 06:11:22;;;;;;;;;;;;;;;7.09;68.97;100189.63;4463115;32;34905;-71
2022/12/05 06:13:53;;;;;;;;;;;;;;;8.20;65.15;100185.22;4467661;32;33690;-66
2022/12/05 06:16:20;;;;;;;;;;;;;;;8.01;65.38;100192.56;4464721;32;35004;-71
2022/12/05 06:18:51;;;;;;;;;;;;;;;7.99;65.78;100175.78;4469085;32;35582;-66
2022/12/05 06:21:19;;;;;;;;;;;;;;;7.73;66.56;100188.78;4465397;32;33048;-67
2022/12/05 06:23:46;;;;;;;;;;;;;;;7.94;65.84;100189.37;4473077;32;33135;-66
2022/12/05 06:26:17;;;;;;;;;;;;;;;7.46;67.57;100192.03;4464823;32;35001;-67
2022/12/05 06:28:45;;;;;;;;;;;;;;;7.78;66.51;100193.88;4462563;32;34782;-67
2022/12/05 06:31:13;;;;;;;;;;;;;;;7.93;65.80;100187.69;4454045;32;33007;-70
2022/12/05 06:33:41;;;;;;;;;;;;;;;7.99;65.78;100192.63;4475526;32;34617;-70
2022/12/05 06:36:09;;;;;;;;;;;;;;;8.17;64.94;100190.72;4479147;32;35272;-67
2022/12/05 06:38:37;;;;;;;;;;;;;;;8.14;65.65;100197.09;4467751;32;35449;-66
2022/12/05 06:41:10;;;;;;;;;;;;;;;8.42;64.02;100190.19;4469531;32;34019;-66
2022/12/05 06:43:37;;;;;;;;;;;;;;;8.43;64.33;100191.91;4459739;32;33515;-67
2022/12/05 06:46:05;;;;;;;;;;;;;;;8.51;64.12;100203.00;4470777;32;32737;-63
2022/12/05 06:48:32;;;;;;;;;;;;;;;7.80;66.90;100195.50;4472998;32;33915;-65
2022/12/05 06:51:00;;;;;;;;;;;;;;;8.28;64.72;100201.66;4467109;32;34209;-67
2022/12/05 06:53:27;;;;;;;;;;;;;;;7.76;66.88;100203.75;4467773;32;32452;-67
2022/12/05 06:55:58;;;;;;;;;;;;;;;8.20;65.73;100206.56;4466194;32;33919;-63
2022/12/05 06:58:25;;;;;;;;;;;;;;;8.02;66.59;100200.47;4475256;32;35788;-66
2022/12/05 07:03:40;;;;;;;;;;;;;;;8.34;65.45;100209.25;4467214;32;32023;-68
2022/12/05 07:06:07;;;;;;;;;;;;;;;8.65;63.80;100209.31;4479525;32;34053;-64
2022/12/05 07:08:34;;;;;;;;;;;;;;;8.20;65.39;100209.22;4469038;32;34255;-66
2022/12/05 07:11:02;;;;;;;;;;;;;;;7.64;66.39;100227.47;4474103;32;34000;-62
2022/12/05 07:13:29;;;;;;;;;;;;;;;8.43;64.70;100220.41;4470363;32;34386;-65
2022/12/05 07:15:57;;;;;;;;;;;;;;;8.30;65.04;100221.06;4473194;32;34214;-65
2022/12/05 07:18:25;;;;;;;;;;;;;;;8.57;64.63;100224.00;4472304;32;33024;-65
2022/12/05 07:20:56;;;;;;;;;;;;;;;7.32;68.52;100233.66;4465969;32;33878;-65
2022/12/05 07:23:40;;;;;;;;;;;;;;;8.09;66.83;100238.28;4470478;32;34423;-65
2022/12/05 07:26:09;;;;;;;;;;;;;;;8.09;66.49;100232.94;4476157;32;32619;-64
2022/12/05 07:28:36;;;;;;;;;;;;;;;7.67;67.56;100239.72;4459835;32;34019;-64
2022/12/05 07:31:08;;;;;;;;;;;;;;;8.31;65.27;100225.44;4475023;32;33611;-65
2022/12/05 07:33:35;;;;;;;;;;;;;;;8.32;65.12;100234.34;4478660;32;33282;-65
2022/12/05 07:36:03;;;;;;;;;;;;;;;8.45;64.59;100237.19;4467539;32;32845;-66
2022/12/05 07:38:31;;;;;;;;;;;;;;;8.06;65.86;100244.69;4469143;32;33979;-69
2022/12/05 07:40:58;;;;;;;;;;;;;;;8.02;66.67;100247.59;4467583;32;34204;-66
2022/12/05 07:43:25;;;;;;;;;;;;;;;7.87;67.02;100254.66;4471476;32;32329;-71
2022/12/05 07:45:53;;;;;;;;;;;;;;;8.32;65.07;100247.66;4463841;32;33783;-68
2022/12/05 07:48:20;;;;;;;;;;;;;;;8.56;64.03;100246.25;4467418;32;35527;-66
2022/12/05 07:50:48;;;;;;;;;;;;;;;8.78;64.28;100245.00;4466153;32;35090;-69
2022/12/05 07:53:15;;;;;;;;;;;;;;;9.13;62.44;100244.69;4468360;32;34128;-66
2022/12/05 07:55:42;;;;;;;;;;;;;;;8.34;64.78;100262.59;4472710;32;34080;-68
2022/12/05 07:58:10;;;;;;;;;;;;;;;9.06;62.61;100253.09;4468038;32;34947;-66
2022/12/05 08:00:37;;;;;;;;;;;;;;;8.11;66.20;100258.59;4474487;32;34395;-67
2022/12/05 08:03:05;;;;;;;;;;;;;;;7.85;66.07;100265.38;4475214;32;33989;-66
2022/12/05 08:05:33;;;;;;;;;;;;;;;8.07;66.53;100258.88;4471390;32;34074;-66
2022/12/05 08:08:00;;;;;;;;;;;;;;;8.08;65.70;100264.09;4478033;32;33740;-69
2022/12/05 08:10:28;;;;;;;;;;;;;;;7.96;65.92;100258.59;4469154;32;34271;-69
2022/12/05 08:12:55;;;;;;;;;;;;;;;8.54;64.42;100260.63;4475271;32;34803;-66
2022/12/05 08:15:22;;;;;;;;;;;;;;;8.65;64.70;100262.69;4476325;32;32956;-70
2022/12/05 08:17:50;;;;;;;;;;;;;;;9.23;62.43;100254.72;4470852;32;34013;-67
2022/12/05 08:20:17;;;;;;;;;;;;;;;8.30;64.94;100262.88;4471169;32;35437;-67
2022/12/05 08:22:44;;;;;;;;;;;;;;;8.28;64.97;100262.09;4468941;32;34483;-67
2022/12/05 08:25:12;;;;;;;;;;;;;;;7.50;68.29;100263.78;4471775;32;33883;-67
2022/12/05 08:27:39;;;;;;;;;;;;;;;8.48;64.54;100266.34;4466171;32;37034;-69
2022/12/05 08:30:07;;;;;;;;;;;;;;;7.20;69.23;100257.34;4476170;32;33370;-66
2022/12/05 08:32:34;;;;;;;;;;;;;;;7.70;67.66;100267.09;4467665;32;33416;-67
2022/12/05 08:35:02;;;;;;;;;;;;;;;7.31;69.52;100271.88;4465666;32;34215;-69
2022/12/05 08:37:29;;;;;;;;;;;;;;;8.33;65.70;100263.56;4469907;32;34318;-67
2022/12/05 08:39:56;;;;;;;;;;;;;;;6.62;71.57;100268.31;4477723;32;34457;-67
2022/12/05 08:42:24;;;;;;;;;;;;;;;6.56;72.16;100260.66;4478504;32;33558;-65
2022/12/05 08:44:51;;;;;;;;;;;;;;;7.60;68.88;100265.00;4473024;32;33862;-64
2022/12/05 08:47:18;;;;;;;;;;;;;;;8.12;66.53;100265.66;4470541;32;32927;-67
2022/12/05 08:49:46;;;;;;;;;;;;;;;8.16;65.93;100266.34;4475928;32;35233;-67
2022/12/05 08:52:13;;;;;;;;;;;;;;;7.49;69.09;100276.25;4464756;32;33868;-67
2022/12/05 08:54:41;;;;;;;;;;;;;;;7.93;67.24;100271.16;4478524;32;32760;-70
2022/12/05 08:57:08;;;;;;;;;;;;;;;7.56;68.79;100274.97;4470259;32;33274;-66
2022/12/05 08:59:35;;;;;;;;;;;;;;;8.24;65.63;100268.56;4466357;32;34229;-69
2022/12/05 09:02:03;;;;;;;;;;;;;;;7.60;68.07;100267.66;4464779;32;33381;-68
2022/12/05 09:04:30;;;;;;;;;;;;;;;7.87;67.12;100275.97;4467854;32;34273;-66
2022/12/05 09:07:00;;;;;;;;;;;;;;;7.62;68.29;100282.62;4469213;32;33010;-65
2022/12/05 09:09:27;;;;;;;;;;;;;;;7.82;67.33;100273.53;4473557;32;33294;-65
2022/12/05 09:11:56;;;;;;;;;;;;;;;7.33;69.08;100264.69;4470497;32;32915;-65
2022/12/05 09:14:24;;;;;;;;;;;;;;;7.62;68.16;100268.44;4468557;32;32783;-72
2022/12/05 09:16:51;;;;;;;;;;;;;;;8.29;66.08;100267.37;4467542;32;34462;-69
2022/12/05 09:19:23;;;;;;;;;;;;;;;8.50;64.69;100256.44;4464863;32;34389;-71
2022/12/05 09:21:51;;;;;;;;;;;;;;;8.14;66.42;100261.09;4473144;32;33444;-66
2022/12/05 09:24:18;;;;;;;;;;;;;;;8.70;64.28;100258.81;4473666;32;34054;-66
2022/12/05 09:26:45;;;;;;;;;;;;;;;8.30;65.33;100260.22;4480395;32;34343;-65
2022/12/05 09:29:13;;;;;;;;;;;;;;;8.02;66.50;100256.44;4478611;32;33493;-66
2022/12/05 09:31:45;;;;;;;;;;;;;;;8.25;65.98;100254.28;4477599;32;33551;-66
2022/12/05 09:34:13;;;;;;;;;;;;;;;8.28;65.82;100255.00;4466314;32;34162;-66
2022/12/05 09:36:41;;;;;;;;;;;;;;;7.89;67.24;100247.41;4466040;32;34184;-66
2022/12/05 09:39:09;;;;;;;;;;;;;;;8.47;64.74;100254.78;4467810;32;34588;-69
2022/12/05 09:44:36;;;;;;;;;;;;;;;8.44;64.96;100246.97;4463467;32;33862;-67
2022/12/05 09:47:06;;;;;;;;;;;;;;;8.13;66.85;100263.84;4476463;32;34204;-66
2022/12/05 09:49:34;;;;;;;;;;;;;;;7.77;67.56;100258.75;4478657;32;34701;-68
2022/12/05 09:52:01;;;;;;;;;;;;;;;8.04;67.54;100254.56;4463698;32;32190;-66
2022/12/05 09:54:29;;;;;;;;;;;;;;;8.50;65.68;100249.28;4475871;32;32847;-65
2022/12/05 09:56:56;;;;;;;;;;;;;;;9.19;63.17;100242.50;4465705;32;34419;-68
2022/12/05 09:59:24;;;;;;;;;;;;;;;9.33;62.18;100241.66;4460754;32;33996;-69
2022/12/05 10:02:01;;;;;;;;;;;;;;;9.60;61.66;100239.09;4462869;32;34552;-69
2022/12/05 10:04:47;;;;;;;;;;;;;;;8.94;63.03;100228.94;4472814;32;32460;-65
2022/12/05 10:07:30;;;;;;;;;;;;;;;8.41;65.38;100228.50;4472815;32;32975;-66
2022/12/05 10:10:16;;;;;;;;;;;;;;;9.24;62.78;100212.84;4473505;32;34107;-66
2022/12/05 10:13:02;;;;;;;;;;;;;;;8.81;64.29;100212.78;4466293;32;32225;-66
2022/12/05 10:15:31;;;;;;;;;;;;;;;7.86;66.47;100219.13;4473287;32;32787;-67
2022/12/05 10:18:00;;;;;;;;;;;;;;;7.14;70.27;100222.19;4477105;32;33913;-68
2022/12/05 10:20:29;;;;;;;;;;;;;;;7.63;69.23;100214.22;4469152;32;35171;-67
2022/12/05 10:23:00;;;;;;;;;;;;;;;8.47;65.94;100201.44;4467879;32;33381;-66
2022/12/05 10:25:27;;;;;;;;;;;;;;;9.07;63.42;100190.69;4465860;32;32706;-67
2022/12/05 10:27:59;;;;;;;;;;;;;;;8.58;65.24;100192.81;4464182;32;32692;-68
2022/12/05 10:30:27;;;;;;;;;;;;;;;8.77;64.62;100185.44;4468657;32;35412;-65
2022/12/05 10:32:56;;;;;;;;;;;;;;;9.24;62.93;100188.81;4459318;32;34581;-66
2022/12/05 10:35:23;;;;;;;;;;;;;;;9.18;63.18;100182.06;4484245;32;34232;-68
2022/12/05 10:37:53;;;;;;;;;;;;;;;8.92;64.20;100177.44;4482905;32;34599;-66
2022/12/05 10:40:20;;;;;;;;;;;;;;;9.01;63.56;100174.19;4455822;32;34380;-70
2022/12/05 10:42:48;;;;;;;;;;;;;;;8.19;66.03;100183.50;4457872;32;33595;-66
2022/12/05 10:45:18;;;;;;;;;;;;;;;8.39;66.47;100188.56;4464759;32;34147;-66
2022/12/05 10:47:45;;;;;;;;;;;;;;;8.67;64.78;100189.63;4467175;32;32903;-65
2022/12/05 10:50:22;;;;;;;;;;;;;;;8.20;66.80;100197.69;4474267;32;33867;-66
2022/12/05 10:52:53;;;;;;;;;;;;;;;8.35;65.74;100199.47;4463433;32;32254;-65
2022/12/05 10:55:20;;;;;;;;;;;;;;;8.89;64.14;100191.81;4466270;32;33299;-66
2022/12/05 10:57:51;;;;;;;;;;;;;;;9.41;63.08;100188.63;4469502;32;34208;-66
2022/12/05 11:00:20;;;;;;;;;;;;;;;8.28;65.16;100188.31;4464733;32;35308;-66
2022/12/05 11:02:48;;;;;;;;;;;;;;;9.21;63.34;100180.97;4463809;32;33765;-65
2022/12/05 11:05:16;;;;;;;;;;;;;;;9.01;63.77;100172.37;4459645;32;32581;-64
2022/12/05 11:07:43;;;;;;;;;;;;;;;8.74;64.74;100169.59;4450749;32;31565;-66
2022/12/05 11:10:29;;;;;;;;;;;;;;;9.01;63.53;100163.53;4465250;32;35798;-65
2022/12/05 11:12:57;;;;;;;;;;;;;;;9.37;63.42;100156.84;4469366;32;33491;-65
2022/12/05 11:15:28;;;;;;;;;;;;;;;9.80;61.78;100154.97;4462730;32;32778;-65
2022/12/05 11:17:58;;;;;;;;;;;;;;;8.81;64.52;100162.94;4467477;32;34150;-65
2022/12/05 11:20:25;;;;;;;;;;;;;;;9.58;62.84;100160.81;4458988;32;34500;-66
2022/12/05 11:22:53;;;;;;;;;;;;;;;9.29;62.71;100163.53;4468846;32;33434;-67
2022/12/05 11:25:27;;;;;;;;;;;;;;;9.75;62.74;100163.25;4464462;32;33873;-66
2022/12/05 11:27:58;;;;;;;;;;;;;;;10.17;60.05;100161.41;4460497;32;34480;-66
2022/12/05 11:30:28;;;;;;;;;;;;;;;9.09;62.90;100161.25;4466565;32;34450;-66
2022/12/05 11:33:10;;;;;;;;;;;;;;;9.77;61.67;100155.16;4468799;32;34953;-65
2022/12/05 11:35:38;;;;;;;;;;;;;;;9.22;62.56;100143.50;4465778;32;33715;-66
2022/12/05 11:38:05;;;;;;;;;;;;;;;8.51;65.07;100146.97;4461068;32;33810;-68
2022/12/05 11:40:34;;;;;;;;;;;;;;;10.36;59.62;100139.66;4477896;32;34722;-66
2022/12/05 11:43:10;;;;;;;;;;;;;;;10.78;58.76;100128.78;4475301;32;33540;-65
2022/12/05 11:45:43;;;;;;;;;;;;;;;9.93;60.64;100131.81;4460892;32;32824;-65
2022/12/05 11:48:13;;;;;;;;;;;;;;;10.17;59.96;100134.66;4470433;32;34094;-66
2022/12/05 11:50:56;;;;;;;;;;;;;;;10.38;59.09;100126.19;4469195;32;33880;-64
2022/12/05 11:53:29;;;;;;;;;;;;;;;10.15;59.60;100125.03;4473617;32;33872;-66
2022/12/05 11:56:00;;;;;;;;;;;;;;;10.28;59.25;100115.25;4465993;32;35273;-68
2022/12/05 11:58:36;;;;;;;;;;;;;;;10.14;59.64;100115.28;4459176;32;34203;-70
2022/12/05 12:01:22;;;;;;;;;;;;;;;10.23;59.70;100118.19;4456626;32;35055;-65
2022/12/05 12:04:07;;;;;;;;;;;;;;;10.64;58.52;100119.91;4462639;32;32135;-66
2022/12/05 12:06:57;;;;;;;;;;;;;;;9.99;60.89;100130.56;4472900;32;33582;-66
2022/12/05 12:09:42;;;;;;;;;;;;;;;9.84;60.99;100126.19;4460817;32;33927;-65
2022/12/05 12:12:17;;;;;;;;;;;;;;;10.25;59.98;100118.09;4470837;32;35429;-67
2022/12/05 12:14:55;;;;;;;;;;;;;;;10.57;59.46;100115.09;4473265;32;35199;-66
2022/12/05 12:17:41;;;;;;;;;;;;;;;10.86;57.33;100124.63;4473110;32;32818;-65
2022/12/05 12:20:18;;;;;;;;;;;;;;;10.25;59.23;100113.59;4456761;32;36414;-66
2022/12/05 12:22:58;;;;;;;;;;;;;;;10.04;60.88;100102.53;4454967;32;35031;-65
2022/12/05 12:25:29;;;;;;;;;;;;;;;10.30;59.14;100102.59;4471804;32;33255;-65
2022/12/05 12:28:04;;;;;;;;;;;;;;;9.98;60.90;100094.94;4459684;32;34064;-66
2022/12/05 12:30:38;;;;;;;;;;;;;;;10.16;59.62;100105.34;4473548;32;34214;-65
2022/12/05 12:33:24;;;;;;;;;;;;;;;10.51;58.54;100099.44;4459011;32;34256;-65
2022/12/05 12:35:54;;;;;;;;;;;;;;;9.93;60.64;100102.38;4468944;32;34648;-66
2022/12/05 12:38:21;;;;;;;;;;;;;;;10.63;58.37;100104.81;4469158;31;34117;-65
2022/12/05 12:41:15;;;;;;;;;;;;;;;10.43;59.34;100106.19;4472751;32;35701;-68
2022/12/05 12:43:45;;;;;;;;;;;;;;;10.63;59.33;100102.13;4453823;32;32652;-67
2022/12/05 12:46:50;;;;;;;;;;;;;;;10.78;57.92;100097.50;4472807;32;33731;-66
2022/12/05 12:49:33;;;;;;;;;;;;;;;10.58;58.40;100079.31;4459945;32;33655;-66
2022/12/05 12:52:01;;;;;;;;;;;;;;;10.63;58.75;100082.53;4467275;31;35406;-67
2022/12/05 12:54:31;;;;;;;;;;;;;;;10.88;58.04;100082.53;4471239;32;34134;-66
2022/12/05 12:57:21;;;;;;;;;;;;;;;10.61;58.36;100085.31;4468127;32;33681;-67
2022/12/05 13:00:00;;;;;;;;;;;;;;;10.22;59.61;100081.72;4473799;32;32867;-67
2022/12/05 13:02:47;;;;;;;;;;;;;;;9.61;61.40;100072.44;4474916;32;34820;-67
2022/12/05 13:05:32;;;;;;;;;;;;;;;9.79;61.41;100073.03;4459306;32;34483;-66
2022/12/05 13:07:59;;;;;;;;;;;;;;;9.56;61.78;100064.69;4456226;32;32206;-65
2022/12/05 13:10:36;;;;;;;;;;;;;;;9.37;62.80;100063.34;4471320;32;35182;-66
2022/12/05 13:13:04;;;;;;;;;;;;;;;9.65;62.33;100059.72;4470629;32;34248;-66